createdAt,value
2018-05-13T00:00:06.519Z,101977.77
2018-05-13T00:02:34.076Z,101981.83
2018-05-13T00:05:01.637Z,101995.03
2018-05-13T00:07:29.165Z,102037.70
2018-05-13T00:09:57.060Z,102027.55
2018-05-13T00:12:24.601Z,102015.36
2018-05-13T00:14:52.148Z,102023.48
2018-05-13T00:17:19.689Z,102040.75
2018-05-13T00:19:47.659Z,102043.80
2018-05-13T00:22:15.207Z,102067.16
2018-05-13T00:24:42.737Z,102093.58
2018-05-13T00:27:10.702Z,102064.12
2018-05-13T00:29:38.235Z,102115.93
2018-05-13T00:32:05.766Z,102104.75
2018-05-13T00:34:33.322Z,102145.39
2018-05-13T00:37:00.868Z,102158.59
2018-05-13T00:39:28.391Z,102113.90
2018-05-13T00:41:55.999Z,102123.04
2018-05-13T00:44:23.546Z,102156.56
2018-05-13T00:46:51.090Z,102175.87
2018-05-13T00:49:18.644Z,102230.73
2018-05-13T00:51:46.161Z,102201.27
2018-05-13T00:54:25.591Z,102239.87
2018-05-13T00:56:53.150Z,102263.23
2018-05-13T00:59:21.115Z,102240.89
2018-05-13T01:01:48.639Z,102245.97
2018-05-13T01:04:16.157Z,102225.65
2018-05-13T01:06:43.721Z,102216.50
2018-05-13T01:09:11.247Z,102274.41
2018-05-13T01:11:38.789Z,102228.70
2018-05-13T01:14:06.333Z,102248.00
2018-05-13T01:16:33.861Z,102339.44
2018-05-13T01:19:01.604Z,102336.39
2018-05-13T01:21:29.125Z,102314.03
2018-05-13T01:23:56.660Z,102293.72
2018-05-13T01:26:24.209Z,102330.29
2018-05-13T01:28:51.734Z,102294.73
2018-05-13T01:31:19.458Z,102358.73
2018-05-13T01:33:46.990Z,102376.01
2018-05-13T01:36:14.516Z,102377.02
2018-05-13T01:38:42.069Z,102398.36
2018-05-13T01:41:09.590Z,102402.42
2018-05-13T01:43:37.145Z,102439.00
2018-05-13T01:46:04.670Z,102473.55
2018-05-13T01:48:32.249Z,102455.26
2018-05-13T01:50:59.772Z,102492.84
2018-05-13T01:53:27.289Z,102446.11
2018-05-13T01:55:54.838Z,102445.09
2018-05-13T01:58:22.365Z,102410.55
2018-05-13T02:00:49.926Z,102461.35
2018-05-13T02:03:17.470Z,102462.37
2018-05-13T02:05:44.986Z,102456.27
2018-05-13T02:08:12.659Z,102484.72
2018-05-13T02:10:40.178Z,102475.58
2018-05-13T02:13:07.705Z,102501.99
2018-05-13T02:15:35.253Z,102537.55
2018-05-13T02:18:02.770Z,102550.77
2018-05-13T02:20:30.326Z,102543.66
2018-05-13T02:22:58.002Z,102544.67
2018-05-13T02:25:25.535Z,102535.52
2018-05-13T02:27:53.065Z,102546.70
2018-05-13T02:30:20.815Z,102582.27
2018-05-13T02:32:48.347Z,102577.18
2018-05-13T02:35:15.865Z,102559.91
2018-05-13T02:37:43.418Z,102582.27
2018-05-13T02:40:10.980Z,102594.45
2018-05-13T02:42:38.554Z,102613.76
2018-05-13T02:45:06.084Z,102590.39
2018-05-13T02:47:33.605Z,102657.45
2018-05-13T02:50:01.223Z,102634.08
2018-05-13T02:52:28.769Z,102664.56
2018-05-13T02:54:56.293Z,102650.34
2018-05-13T02:57:23.951Z,102701.14
2018-05-13T02:59:51.473Z,102667.61
2018-05-13T03:02:19.003Z,102765.16
2018-05-13T03:04:46.572Z,102721.46
2018-05-13T03:07:14.092Z,102709.27
2018-05-13T03:09:41.637Z,102736.70
2018-05-13T03:12:09.165Z,102781.41
2018-05-13T03:14:36.931Z,102748.90
2018-05-13T03:17:04.464Z,102735.69
2018-05-13T03:19:31.983Z,102737.72
2018-05-13T03:21:59.950Z,102767.19
2018-05-13T03:24:27.478Z,102782.42
2018-05-13T03:26:55.002Z,102793.61
2018-05-13T03:29:22.565Z,102791.58
2018-05-13T03:31:50.082Z,102757.02
2018-05-13T03:34:17.615Z,102757.02
2018-05-13T03:36:45.175Z,102759.05
2018-05-13T03:39:12.694Z,102769.22
2018-05-13T03:41:40.390Z,102754.99
2018-05-13T03:44:07.928Z,102796.66
2018-05-13T03:46:35.461Z,102825.11
2018-05-13T03:49:03.001Z,102784.45
2018-05-13T03:51:30.735Z,102747.88
2018-05-13T03:53:58.266Z,102763.13
2018-05-13T03:56:25.789Z,102783.44
2018-05-13T03:58:53.350Z,102749.91
2018-05-13T04:01:20.878Z,102762.11
2018-05-13T04:03:48.463Z,102680.82
2018-05-13T04:06:15.991Z,102721.46
2018-05-13T04:08:55.414Z,102734.67
2018-05-13T04:11:34.770Z,102751.95
2018-05-13T04:14:14.317Z,102704.19
2018-05-13T04:16:42.002Z,102667.61
2018-05-13T04:19:09.527Z,102742.80
2018-05-13T04:21:37.050Z,102629.00
2018-05-13T04:24:04.627Z,102636.11
2018-05-13T04:26:32.210Z,102655.42
2018-05-13T04:28:59.737Z,102563.97
2018-05-13T04:31:27.333Z,102555.84
2018-05-13T04:33:54.890Z,102548.73
2018-05-13T04:36:22.602Z,102533.48
2018-05-13T04:38:50.120Z,102469.48
2018-05-13T04:41:17.652Z,102429.86
2018-05-13T04:43:45.216Z,102385.16
2018-05-13T04:46:13.189Z,102299.81
2018-05-13T04:48:40.717Z,102291.69
2018-05-13T04:51:08.245Z,102343.50
2018-05-13T04:53:35.870Z,102380.07
2018-05-13T04:56:03.421Z,102333.34
2018-05-13T04:58:31.429Z,102386.17
2018-05-13T05:00:58.949Z,102363.81
2018-05-13T05:03:26.733Z,102299.81
2018-05-13T05:05:54.282Z,102250.03
2018-05-13T05:08:21.851Z,102160.62
2018-05-13T05:10:49.370Z,102087.48
2018-05-13T05:13:16.902Z,102313.02
2018-05-13T05:15:44.597Z,102323.17
2018-05-13T05:18:12.118Z,102081.39
2018-05-13T05:20:39.667Z,102184.00
2018-05-13T05:23:07.409Z,102213.45
2018-05-13T05:25:34.934Z,102239.87
2018-05-13T05:28:02.461Z,101819.30
2018-05-13T05:30:30.140Z,101882.28
2018-05-13T05:32:57.661Z,101727.88
2018-05-13T05:35:25.185Z,101751.23
2018-05-13T05:37:52.868Z,101662.86
2018-05-13T05:40:20.385Z,101529.80
2018-05-13T05:42:47.910Z,101563.32
2018-05-13T05:45:15.469Z,101663.87
2018-05-13T05:47:43.141Z,101697.40
2018-05-13T05:50:10.670Z,101911.73
2018-05-13T05:52:38.192Z,101752.25
2018-05-13T05:55:05.749Z,101981.83
2018-05-13T05:57:33.270Z,101957.45
2018-05-13T06:00:00.818Z,102015.36
2018-05-13T06:02:28.343Z,102061.07
2018-05-13T06:04:56.022Z,102019.42
2018-05-13T06:07:23.596Z,102178.91
2018-05-13T06:09:52.503Z,102135.23
2018-05-13T06:12:20.227Z,102149.45
2018-05-13T06:14:47.848Z,102108.81
2018-05-13T06:17:15.365Z,102259.17
2018-05-13T06:19:42.931Z,102258.16
2018-05-13T06:22:10.465Z,102331.30
2018-05-13T06:24:37.982Z,102281.52
2018-05-13T06:27:05.530Z,102279.49
2018-05-13T06:29:33.115Z,102230.73
2018-05-13T06:32:00.646Z,102288.64
2018-05-13T06:34:28.225Z,102196.19
2018-05-13T06:36:55.892Z,102184.00
2018-05-13T06:39:23.429Z,101958.47
2018-05-13T06:41:50.957Z,101829.45
2018-05-13T06:44:18.507Z,101927.98
2018-05-13T06:46:46.040Z,101881.27
2018-05-13T06:49:13.613Z,101918.84
2018-05-13T06:51:41.151Z,102092.56
2018-05-13T06:54:08.687Z,102287.63
2018-05-13T06:56:36.276Z,102299.81
2018-05-13T06:59:03.839Z,102194.16
2018-05-13T07:01:31.367Z,102080.38
2018-05-13T07:03:59.364Z,101987.92
2018-05-13T07:06:26.898Z,101900.56
2018-05-13T07:08:54.413Z,102027.55
2018-05-13T07:11:22.181Z,102071.23
2018-05-13T07:13:49.710Z,101975.73
2018-05-13T07:16:17.255Z,101803.05
2018-05-13T07:18:45.012Z,101845.70
2018-05-13T07:21:12.533Z,101573.47
2018-05-13T07:23:40.061Z,101380.48
2018-05-13T07:26:07.638Z,101589.73
2018-05-13T07:28:35.166Z,101628.33
2018-05-13T07:31:02.695Z,101345.95
2018-05-13T07:33:30.455Z,101256.58
2018-05-13T07:35:57.986Z,101065.64
2018-05-13T07:38:25.507Z,101028.06
2018-05-13T07:40:53.067Z,100677.70
2018-05-13T07:43:20.641Z,100786.36
2018-05-13T07:45:48.174Z,100722.38
2018-05-13T07:48:15.707Z,100938.69
2018-05-13T07:50:43.755Z,100834.09
2018-05-13T07:53:11.278Z,101172.28
2018-05-13T07:55:38.821Z,101140.80
2018-05-13T07:58:06.362Z,100934.63
2018-05-13T08:00:33.885Z,101182.44
2018-05-13T08:03:01.477Z,100773.16
2018-05-13T08:05:29.003Z,101166.18
2018-05-13T08:07:56.530Z,101104.23
2018-05-13T08:10:24.109Z,100847.29
2018-05-13T08:12:51.649Z,100633.02
2018-05-13T08:15:19.174Z,101080.87
2018-05-13T08:17:46.726Z,101018.92
2018-05-13T08:20:14.351Z,100794.48
2018-05-13T08:22:41.831Z,100938.69
2018-05-13T08:25:09.593Z,100825.96
2018-05-13T08:27:37.114Z,100855.41
2018-05-13T08:30:04.686Z,101087.98
2018-05-13T08:32:32.220Z,101176.34
2018-05-13T08:34:59.784Z,101288.06
2018-05-13T08:37:27.319Z,101292.13
2018-05-13T08:39:54.914Z,101128.61
2018-05-13T08:42:22.454Z,100945.80
2018-05-13T08:44:49.990Z,100890.95
2018-05-13T08:47:17.534Z,100477.66
2018-05-13T08:49:45.069Z,100047.14
2018-05-13T08:52:12.618Z,99931.39
2018-05-13T08:54:40.149Z,99906.02
2018-05-13T08:57:07.828Z,99900.94
2018-05-13T08:59:35.425Z,100519.28
2018-05-13T09:02:02.932Z,100174.05
2018-05-13T09:04:30.473Z,99897.89
2018-05-13T09:06:58.009Z,100395.41
2018-05-13T09:09:25.560Z,100578.19
2018-05-13T09:11:53.085Z,99820.73
2018-05-13T09:14:20.846Z,99717.18
2018-05-13T09:16:48.386Z,99881.64
2018-05-13T09:19:15.904Z,99837.98
2018-05-13T09:21:43.478Z,100052.21
2018-05-13T09:24:11.058Z,99652.20
2018-05-13T09:26:38.600Z,99671.49
2018-05-13T09:29:06.155Z,99706.02
2018-05-13T09:31:34.165Z,99693.83
2018-05-13T09:34:01.690Z,99623.78
2018-05-13T09:36:29.214Z,99930.38
2018-05-13T09:38:56.755Z,99759.81
2018-05-13T09:41:24.284Z,99279.66
2018-05-13T09:43:51.824Z,99198.45
2018-05-13T09:46:19.346Z,99484.70
2018-05-13T09:48:46.928Z,99031.98
2018-05-13T09:51:14.456Z,98937.58
2018-05-13T09:53:41.969Z,99156.83
2018-05-13T09:56:09.513Z,99657.28
2018-05-13T09:58:37.038Z,99719.21
2018-05-13T10:01:04.589Z,99970.99
2018-05-13T10:03:32.114Z,99772.00
2018-05-13T10:06:00.034Z,99562.88
2018-05-13T10:08:27.567Z,99225.85
2018-05-13T10:10:55.085Z,99432.94
2018-05-13T10:13:22.788Z,99349.70
2018-05-13T10:15:50.317Z,98533.65
2018-05-13T10:18:17.847Z,98471.73
2018-05-13T10:20:45.394Z,98227.17
2018-05-13T10:23:12.928Z,99007.62
2018-05-13T10:25:40.987Z,99147.69
2018-05-13T10:28:08.504Z,99227.88
2018-05-13T10:30:36.026Z,99285.74
2018-05-13T10:33:04.018Z,98500.16
2018-05-13T10:35:31.541Z,98127.73
2018-05-13T10:37:59.061Z,98338.80
2018-05-13T10:40:26.834Z,98227.17
2018-05-13T10:42:54.366Z,98207.89
2018-05-13T10:45:21.895Z,97759.39
2018-05-13T10:47:49.655Z,98043.50
2018-05-13T10:50:17.174Z,98044.52
2018-05-13T10:52:44.701Z,97858.83
2018-05-13T10:55:12.282Z,97800.99
2018-05-13T10:57:39.815Z,98231.23
2018-05-13T11:00:07.346Z,98439.27
2018-05-13T11:02:34.905Z,98033.36
2018-05-13T11:05:03.382Z,97444.87
2018-05-13T11:07:31.065Z,98038.43
2018-05-13T11:09:58.607Z,97893.33
2018-05-13T11:12:26.142Z,98856.39
2018-05-13T11:14:53.690Z,98123.67
2018-05-13T11:17:21.209Z,98113.52
2018-05-13T11:19:49.129Z,97977.55
2018-05-13T11:22:16.664Z,97751.27
2018-05-13T11:24:44.197Z,97991.75
2018-05-13T11:27:11.807Z,98162.23
2018-05-13T11:29:39.326Z,98596.56
2018-05-13T11:32:06.942Z,98182.52
2018-05-13T11:34:34.478Z,98514.36
2018-05-13T11:37:02.018Z,98338.80
2018-05-13T11:39:29.562Z,98356.05
2018-05-13T11:41:57.087Z,98823.91
2018-05-13T11:44:24.644Z,98667.61
2018-05-13T11:46:52.328Z,97985.66
2018-05-13T11:49:19.846Z,98485.95
2018-05-13T11:51:47.420Z,97827.38
2018-05-13T11:54:14.954Z,98524.52
2018-05-13T11:56:42.729Z,98433.18
2018-05-13T11:59:10.266Z,97537.20
2018-05-13T12:01:37.797Z,98328.65
2018-05-13T12:04:05.344Z,98158.17
2018-05-13T12:06:32.870Z,98459.56
2018-05-13T12:09:00.416Z,98457.53
2018-05-13T12:11:28.028Z,97605.17
2018-05-13T12:13:55.549Z,97686.34
2018-05-13T12:16:23.141Z,98067.86
2018-05-13T12:18:50.729Z,98494.06
2018-05-13T12:21:18.261Z,97640.68
2018-05-13T12:23:45.797Z,98500.16
2018-05-13T12:26:13.338Z,98652.39
2018-05-13T12:28:41.074Z,98395.63
2018-05-13T12:31:08.654Z,98714.30
2018-05-13T12:33:36.195Z,98791.43
2018-05-13T12:36:03.722Z,98534.66
2018-05-13T12:38:31.266Z,98358.08
2018-05-13T12:40:58.870Z,98257.61
2018-05-13T12:43:26.418Z,97688.37
2018-05-13T12:45:53.945Z,97851.72
2018-05-13T12:48:21.512Z,97806.06
2018-05-13T12:50:49.028Z,97275.44
2018-05-13T12:53:16.575Z,97136.46
2018-05-13T12:55:44.130Z,97990.73
2018-05-13T12:58:11.653Z,97367.77
2018-05-13T13:00:39.197Z,98180.49
2018-05-13T13:03:06.745Z,98464.64
2018-05-13T13:05:34.295Z,98655.43
2018-05-13T13:08:01.875Z,98152.08
2018-05-13T13:10:29.418Z,98049.59
2018-05-13T13:12:57.018Z,98742.72
2018-05-13T13:15:24.677Z,98048.58
2018-05-13T13:17:52.196Z,98337.78
2018-05-13T13:20:19.746Z,98484.94
2018-05-13T13:22:47.314Z,98620.92
2018-05-13T13:25:14.844Z,98500.16
2018-05-13T13:27:42.393Z,98732.56
2018-05-13T13:30:09.915Z,99095.92
2018-05-13T13:32:37.473Z,98952.81
2018-05-13T13:35:05.015Z,98838.12
2018-05-13T13:37:32.536Z,98999.50
2018-05-13T13:40:00.310Z,99279.66
2018-05-13T13:42:27.865Z,99230.92
2018-05-13T13:44:55.381Z,99162.92
2018-05-13T13:47:23.015Z,99259.34
2018-05-13T13:49:50.479Z,99163.94
2018-05-13T13:52:18.468Z,99304.02
2018-05-13T13:54:45.989Z,98973.11
2018-05-13T13:57:13.506Z,98901.05
2018-05-13T13:59:41.055Z,99309.09
2018-05-13T14:02:08.582Z,99278.64
2018-05-13T14:04:36.125Z,99050.25
2018-05-13T14:07:03.659Z,99467.45
2018-05-13T14:09:31.228Z,99673.53
2018-05-13T14:11:58.805Z,99686.72
2018-05-13T14:14:26.828Z,99427.86
2018-05-13T14:16:54.364Z,99529.37
2018-05-13T14:19:21.894Z,99792.30
2018-05-13T14:21:49.547Z,99970.99
2018-05-13T14:24:17.079Z,99818.70
2018-05-13T14:26:44.607Z,100003.48
2018-05-13T14:29:13.072Z,100107.04
2018-05-13T14:31:40.601Z,100335.50
2018-05-13T14:34:08.145Z,100395.41
2018-05-13T14:36:35.674Z,100431.95
2018-05-13T14:39:11.823Z,100618.80
2018-05-13T14:41:30.916Z,100662.47
2018-05-13T14:43:58.469Z,100693.95
2018-05-13T14:46:26.133Z,100707.15
2018-05-13T14:48:53.654Z,100868.61
2018-05-13T14:51:21.189Z,101033.14
2018-05-13T14:53:48.757Z,101014.86
2018-05-13T14:56:16.276Z,100987.44
2018-05-13T14:58:43.969Z,101094.07
2018-05-13T15:01:11.500Z,100985.41
2018-05-13T15:03:40.043Z,101082.91
2018-05-13T15:06:07.718Z,101089.00
2018-05-13T15:08:35.286Z,101037.20
2018-05-13T15:11:02.866Z,101234.23
2018-05-13T15:13:30.388Z,101231.19
2018-05-13T15:15:57.914Z,101345.95
2018-05-13T15:18:25.582Z,101416.03
2018-05-13T15:20:53.101Z,101479.02
2018-05-13T15:23:20.633Z,101327.67
2018-05-13T15:25:48.220Z,101548.08
2018-05-13T15:28:15.762Z,101555.19
2018-05-13T15:30:43.488Z,101568.39
2018-05-13T15:33:11.018Z,101621.22
2018-05-13T15:35:38.546Z,101647.63
2018-05-13T15:38:06.102Z,101709.59
2018-05-13T15:40:33.625Z,101693.34
2018-05-13T15:43:01.363Z,101778.66
2018-05-13T15:45:28.794Z,101790.85
2018-05-13T15:47:56.338Z,101888.38
2018-05-13T15:50:23.857Z,101925.95
2018-05-13T15:52:51.852Z,102061.07
2018-05-13T15:55:19.421Z,101972.69
2018-05-13T15:57:46.998Z,101964.56
2018-05-13T16:00:14.557Z,102020.44
2018-05-13T16:02:42.105Z,102156.56
2018-05-13T16:05:09.745Z,102169.77
2018-05-13T16:07:37.277Z,102069.20
2018-05-13T16:10:04.843Z,102127.11
2018-05-13T16:12:32.415Z,102123.04
2018-05-13T16:14:59.962Z,102330.29
2018-05-13T16:17:31.705Z,102284.58
2018-05-13T16:20:01.700Z,102328.26
2018-05-13T16:22:29.641Z,102449.16
2018-05-13T16:24:57.897Z,102551.78
2018-05-13T16:27:25.827Z,102569.05
2018-05-13T16:29:53.373Z,102551.78
2018-05-13T16:32:20.917Z,102491.83
2018-05-13T16:34:48.476Z,102447.13
2018-05-13T16:37:17.072Z,102596.48
2018-05-13T16:39:45.639Z,102559.91
2018-05-13T16:42:13.161Z,102713.33
2018-05-13T16:44:40.847Z,102620.88
2018-05-13T16:47:08.369Z,102666.59
2018-05-13T16:49:35.899Z,102661.52
2018-05-13T16:52:03.459Z,102645.25
2018-05-13T16:54:30.998Z,102593.44
2018-05-13T16:56:58.591Z,102645.25
2018-05-13T16:59:26.185Z,102606.65
2018-05-13T17:01:53.657Z,102621.89
2018-05-13T17:04:21.209Z,102724.52
2018-05-13T17:06:48.738Z,102771.25
2018-05-13T17:09:16.329Z,102772.27
2018-05-13T17:11:43.884Z,102729.59
2018-05-13T17:14:11.423Z,102797.67
2018-05-13T17:16:38.992Z,102740.77
2018-05-13T17:19:06.532Z,102809.86
2018-05-13T17:21:34.102Z,102844.41
2018-05-13T17:24:01.631Z,102776.33
2018-05-13T17:26:29.225Z,102826.13
2018-05-13T17:28:56.753Z,102786.49
2018-05-13T17:31:24.294Z,102937.89
2018-05-13T17:33:51.846Z,103003.95
2018-05-13T17:36:20.321Z,102923.67
2018-05-13T17:38:47.894Z,103006.99
2018-05-13T17:41:15.452Z,103003.95
2018-05-13T17:43:42.990Z,103081.17
2018-05-13T17:46:10.571Z,103052.72
2018-05-13T17:48:38.099Z,103061.87
2018-05-13T17:51:05.698Z,103096.42
2018-05-13T17:53:33.303Z,103086.26
2018-05-13T17:56:00.814Z,103081.17
2018-05-13T17:58:28.371Z,103061.87
2018-05-13T18:00:55.960Z,103064.91
2018-05-13T18:03:23.690Z,103084.22
2018-05-13T18:05:51.131Z,103071.02
2018-05-13T18:08:18.761Z,103056.78
2018-05-13T18:10:46.463Z,103047.64
2018-05-13T18:13:13.990Z,103061.87
2018-05-13T18:15:41.523Z,103058.82
2018-05-13T18:18:09.131Z,103056.78
2018-05-13T18:20:36.661Z,103094.38
2018-05-13T18:23:04.425Z,103058.82
2018-05-13T18:25:32.109Z,103072.03
2018-05-13T18:27:59.646Z,103086.26
2018-05-13T18:30:27.187Z,103074.06
2018-05-13T18:32:54.764Z,103076.09
2018-05-13T18:35:22.303Z,103093.37
2018-05-13T18:37:49.829Z,103070.00
2018-05-13T18:40:17.385Z,103099.47
2018-05-13T18:42:45.125Z,103096.42
2018-05-13T18:45:12.694Z,103100.48
2018-05-13T18:47:40.236Z,103073.05
2018-05-13T18:50:07.797Z,103087.27
2018-05-13T18:52:35.378Z,103079.14
2018-05-13T18:55:02.902Z,103116.74
2018-05-13T18:57:30.442Z,103077.11
2018-05-13T18:59:58.026Z,103056.78
2018-05-13T19:02:25.568Z,103064.91
2018-05-13T19:04:53.226Z,103127.92
2018-05-13T19:07:20.777Z,103074.06
2018-05-13T19:09:48.317Z,103046.63
2018-05-13T19:12:15.912Z,103057.80
2018-05-13T19:14:46.457Z,103042.56
2018-05-13T19:17:15.975Z,103074.06
2018-05-13T19:19:43.741Z,103004.96
2018-05-13T19:22:11.561Z,103043.58
2018-05-13T19:24:39.492Z,103038.49
2018-05-13T19:27:06.994Z,103086.26
2018-05-13T19:29:34.567Z,103054.75
2018-05-13T19:32:02.102Z,103027.31
2018-05-13T19:34:29.658Z,103004.96
2018-05-13T19:36:57.307Z,103032.40
2018-05-13T19:39:25.084Z,102974.48
2018-05-13T19:41:52.751Z,102985.66
2018-05-13T19:44:20.284Z,102989.72
2018-05-13T19:46:47.955Z,103004.96
2018-05-13T19:49:15.452Z,102974.48
2018-05-13T19:51:43.050Z,102909.44
2018-05-13T19:54:10.621Z,102853.55
2018-05-13T19:56:38.376Z,102860.67
2018-05-13T19:59:05.924Z,102856.60
2018-05-13T20:01:33.466Z,102892.17
2018-05-13T20:04:01.019Z,102787.51
2018-05-13T20:06:28.547Z,102756.01
2018-05-13T20:08:56.174Z,102767.19
2018-05-13T20:11:23.806Z,102763.13
2018-05-13T20:13:51.341Z,102728.58
2018-05-13T20:16:18.884Z,102772.27
2018-05-13T20:18:46.448Z,102807.83
2018-05-13T20:21:13.990Z,102795.64
2018-05-13T20:23:41.676Z,102846.45
2018-05-13T20:26:09.215Z,102779.37
2018-05-13T20:28:36.746Z,102694.03
2018-05-13T20:31:04.306Z,102765.16
2018-05-13T20:33:32.079Z,102811.89
2018-05-13T20:35:59.627Z,102771.25
2018-05-13T20:38:27.145Z,102780.39
2018-05-13T20:40:54.720Z,102721.46
2018-05-13T20:43:22.294Z,102667.61
2018-05-13T20:45:50.027Z,102695.05
2018-05-13T20:48:17.714Z,102670.66
2018-05-13T20:50:45.391Z,102709.27
2018-05-13T20:53:12.931Z,102721.46
2018-05-13T20:55:40.476Z,102763.13
2018-05-13T20:58:07.997Z,102733.66
2018-05-13T21:00:35.587Z,102710.28
2018-05-13T21:03:03.118Z,102640.17
2018-05-13T21:05:30.651Z,102668.62
2018-05-13T21:07:58.202Z,102666.59
2018-05-13T21:10:25.739Z,102706.22
2018-05-13T21:12:53.369Z,102638.14
2018-05-13T21:15:20.894Z,102696.06
2018-05-13T21:17:48.426Z,102660.50
2018-05-13T21:20:15.984Z,102727.56
2018-05-13T21:22:43.519Z,102724.52
2018-05-13T21:25:11.226Z,102763.13
2018-05-13T21:27:38.820Z,102728.58
2018-05-13T21:30:06.351Z,102713.33
2018-05-13T21:32:34.243Z,102675.73
2018-05-13T21:35:01.774Z,102754.99
2018-05-13T21:37:29.311Z,102765.16
2018-05-13T21:39:56.854Z,102698.09
2018-05-13T21:42:24.430Z,102696.06
2018-05-13T21:44:51.965Z,102680.82
2018-05-13T21:47:19.492Z,102665.58
2018-05-13T21:49:47.094Z,102604.61
2018-05-13T21:52:14.622Z,102611.73
2018-05-13T21:54:42.300Z,102627.98
2018-05-13T21:57:09.829Z,102559.91
2018-05-13T21:59:37.368Z,102589.37
2018-05-13T22:02:04.966Z,102567.02
2018-05-13T22:04:32.493Z,102583.28
2018-05-13T22:07:00.017Z,102558.89
2018-05-13T22:09:27.587Z,102624.94
2018-05-13T22:11:55.137Z,102607.66
2018-05-13T22:14:22.657Z,102571.09
2018-05-13T22:16:50.350Z,102550.77
2018-05-13T22:19:17.871Z,102605.63
2018-05-13T22:21:45.399Z,102626.97
2018-05-13T22:24:12.946Z,102611.73
2018-05-13T22:26:40.470Z,102679.80
2018-05-13T22:29:08.014Z,102655.42
2018-05-13T22:31:35.538Z,102639.16
2018-05-13T22:34:03.093Z,102595.47
2018-05-13T22:36:30.680Z,102591.41
2018-05-13T22:38:58.227Z,102557.88
2018-05-13T22:41:25.764Z,102586.33
2018-05-13T22:43:53.318Z,102611.73
2018-05-13T22:46:20.841Z,102586.33
2018-05-13T22:48:48.622Z,102631.03
2018-05-13T22:51:16.162Z,102595.47
2018-05-13T22:53:43.681Z,102606.65
2018-05-13T22:56:11.250Z,102662.53
2018-05-13T22:58:39.306Z,102670.66
2018-05-13T23:01:06.837Z,102679.80
2018-05-13T23:03:34.370Z,102662.53
2018-05-13T23:06:01.937Z,102650.34
2018-05-13T23:08:29.479Z,102669.64
2018-05-13T23:10:57.002Z,102654.41
2018-05-13T23:13:24.551Z,102723.50
2018-05-13T23:15:52.097Z,102739.75
2018-05-13T23:18:19.622Z,102734.67
2018-05-13T23:20:47.293Z,102724.52
2018-05-13T23:23:14.830Z,102713.33
2018-05-13T23:25:42.359Z,102750.93
2018-05-13T23:28:09.918Z,102687.93
2018-05-13T23:30:37.442Z,102753.98
2018-05-13T23:33:05.000Z,102671.67
2018-05-13T23:35:32.538Z,102608.68
2018-05-13T23:38:00.104Z,102612.74
2018-05-13T23:40:27.643Z,102609.70
2018-05-13T23:42:55.358Z,102625.95
2018-05-13T23:45:22.880Z,102594.45
2018-05-13T23:47:50.466Z,102583.28
2018-05-13T23:50:18.011Z,102712.31
2018-05-13T23:52:45.547Z,102643.22
2018-05-13T23:55:13.501Z,102687.93
2018-05-13T23:57:41.041Z,102717.39
